Terminal Aerodrome Forecast
Issued by NWS Brownsville, TX

Home | Current Version | Previous Version | Text Only | Print | Product List | Glossary On
Versions: 1 2 3 4 5 6 7 8 9 10 11 12 13 14 15 16 17
000
FTUS44 KBRO 220700 AAA
TAFMFE
TAF AMD
KMFE 220709Z 2207/2306 15009KT P6SM SKC
     FM221400 15014G21KT P6SM FEW040=

USA.gov is the U.S. government's official web portal to all federal, state and local government web resources and services.